createdAt,value
2022-12-15T00:00:17.098Z,31.98
2022-12-15T00:03:02.673Z,33.22
2022-12-15T00:05:50.112Z,33.28
2022-12-15T00:08:35.626Z,33.90
2022-12-15T00:11:22.245Z,31.40
2022-12-15T00:14:07.378Z,30.05
2022-12-15T00:16:52.785Z,30.35
2022-12-15T00:19:38.327Z,30.05
2022-12-15T00:22:24.540Z,31.77
2022-12-15T00:25:10.170Z,32.10
2022-12-15T00:27:55.395Z,31.42
2022-12-15T00:30:40.516Z,30.02
2022-12-15T00:33:29.545Z,28.48
2022-12-15T00:36:17.998Z,26.15
2022-12-15T00:38:45.589Z,28.30
2022-12-15T00:41:17.803Z,29.13
2022-12-15T00:43:45.204Z,32.53
2022-12-15T00:46:30.909Z,18.83
2022-12-15T00:48:58.224Z,23.15
2022-12-15T00:51:43.931Z,32.42
2022-12-15T00:54:29.707Z,20.85
2022-12-15T00:57:15.414Z,33.28
2022-12-15T01:00:00.651Z,20.83
2022-12-15T01:02:46.150Z,25.42
2022-12-15T01:05:31.830Z,30.10
2022-12-15T01:08:18.820Z,31.52
2022-12-15T01:11:04.366Z,33.10
2022-12-15T01:13:50.114Z,33.83
2022-12-15T01:16:35.904Z,33.83
2022-12-15T01:19:21.510Z,30.25
2022-12-15T01:21:49.644Z,34.65
2022-12-15T01:24:16.538Z,22.77
2022-12-15T01:26:43.363Z,18.02
2022-12-15T01:29:10.267Z,33.40
2022-12-15T01:31:37.097Z,23.70
2022-12-15T01:34:04.016Z,37.05
2022-12-15T01:36:31.295Z,24.45
2022-12-15T01:38:58.095Z,27.65
2022-12-15T01:41:25.219Z,35.90
2022-12-15T01:43:52.011Z,32.42
2022-12-15T01:46:23.882Z,23.30
2022-12-15T01:49:21.080Z,35.90
2022-12-15T01:51:53.346Z,24.08
2022-12-15T01:54:41.698Z,18.02
2022-12-15T01:57:14.356Z,25.38
2022-12-15T01:59:52.877Z,26.95
2022-12-15T02:02:25.297Z,25.40
2022-12-15T02:04:56.617Z,31.98
2022-12-15T02:07:24.464Z,27.20
2022-12-15T02:09:56.168Z,19.88
2022-12-15T02:12:56.736Z,32.47
2022-12-15T02:15:43.934Z,34.33
2022-12-15T02:18:59.912Z,34.67
2022-12-15T02:21:42.498Z,26.50
2022-12-15T02:25:03.837Z,31.73
2022-12-15T02:27:48.506Z,22.10
2022-12-15T02:30:35.701Z,25.85
2022-12-15T02:33:21.710Z,21.25
2022-12-15T02:35:57.061Z,30.25
2022-12-15T02:38:38.224Z,33.92
2022-12-15T02:41:33.091Z,35.22
2022-12-15T02:44:02.427Z,26.33
2022-12-15T02:47:03.354Z,32.33
2022-12-15T02:50:11.187Z,24.80
2022-12-15T02:53:15.102Z,22.65
2022-12-15T02:55:54.301Z,19.00
2022-12-15T02:59:10.986Z,25.52
2022-12-15T03:01:44.552Z,23.70
2022-12-15T03:04:13.087Z,25.83
2022-12-15T03:06:40.068Z,28.88
2022-12-15T03:09:06.918Z,22.02
2022-12-15T03:11:34.486Z,28.52
2022-12-15T03:18:07.605Z,26.70
2022-12-15T03:20:34.421Z,31.17
2022-12-15T03:23:01.906Z,32.97
2022-12-15T03:25:29.450Z,37.13
2022-12-15T03:27:56.812Z,34.42
2022-12-15T03:30:23.735Z,35.50
2022-12-15T03:32:50.624Z,33.10
2022-12-15T03:35:17.475Z,33.40
2022-12-15T03:37:44.245Z,17.80
2022-12-15T03:40:13.798Z,23.17
2022-12-15T03:42:49.519Z,14.23
2022-12-15T03:45:28.111Z,28.35
2022-12-15T03:47:56.843Z,25.75
2022-12-15T03:50:27.923Z,35.58
2022-12-15T03:53:00.535Z,28.25
2022-12-15T03:55:31.595Z,23.45
2022-12-15T03:57:59.245Z,18.52
2022-12-15T04:00:27.030Z,30.55
2022-12-15T04:02:54.421Z,27.67
2022-12-15T04:05:28.120Z,20.88
2022-12-15T04:07:57.225Z,19.92
2022-12-15T04:10:33.371Z,30.63
2022-12-15T04:13:07.464Z,21.27
2022-12-15T04:15:36.161Z,22.88
2022-12-15T04:18:07.340Z,29.48
2022-12-15T04:20:34.131Z,31.88
2022-12-15T04:23:00.935Z,35.35
2022-12-15T04:25:46.941Z,18.08
2022-12-15T04:28:32.687Z,33.40
2022-12-15T04:31:30.219Z,33.40
2022-12-15T04:34:21.038Z,28.75
2022-12-15T04:37:10.388Z,29.10
2022-12-15T04:39:58.874Z,26.65
2022-12-15T04:42:45.820Z,33.92
2022-12-15T04:45:32.060Z,32.10
2022-12-15T04:48:18.615Z,31.73
2022-12-15T04:51:03.647Z,22.33
2022-12-15T04:53:49.071Z,15.02
2022-12-15T04:56:34.963Z,26.98
2022-12-15T04:59:21.276Z,18.95
2022-12-15T05:02:07.068Z,27.27
2022-12-15T05:04:52.706Z,31.13
2022-12-15T05:07:38.793Z,33.08
2022-12-15T05:10:24.999Z,28.25
2022-12-15T05:13:10.357Z,32.28
2022-12-15T05:15:56.071Z,33.58
2022-12-15T05:18:41.874Z,26.05
2022-12-15T05:21:27.400Z,23.00
2022-12-15T05:24:12.813Z,32.72
2022-12-15T05:26:58.260Z,23.35
2022-12-15T05:29:43.674Z,11.70
2022-12-15T05:32:10.506Z,26.02
2022-12-15T05:34:38.288Z,24.45
2022-12-15T05:37:07.228Z,25.13
2022-12-15T05:39:34.451Z,33.45
2022-12-15T05:42:01.294Z,27.52
2022-12-15T05:44:28.740Z,26.40
2022-12-15T05:46:55.871Z,29.15
2022-12-15T05:49:25.511Z,25.38
2022-12-15T05:51:52.841Z,19.45
2022-12-15T05:54:20.171Z,30.90
2022-12-15T05:56:50.108Z,22.35
2022-12-15T05:59:19.074Z,18.45
2022-12-15T06:01:46.513Z,25.83
2022-12-15T06:04:13.602Z,30.95
2022-12-15T06:06:41.454Z,32.28
2022-12-15T06:09:08.929Z,27.92
2022-12-15T06:11:37.277Z,26.55
2022-12-15T06:14:04.157Z,20.98
2022-12-15T06:16:31.080Z,29.80
2022-12-15T06:19:01.311Z,32.80
2022-12-15T06:21:32.362Z,27.75
2022-12-15T06:24:00.590Z,24.55
2022-12-15T06:26:39.729Z,28.63
2022-12-15T06:29:10.345Z,19.75
2022-12-15T06:31:37.997Z,32.10
2022-12-15T06:34:08.143Z,22.58
2022-12-15T06:36:35.260Z,26.63
2022-12-15T06:39:04.540Z,25.02
2022-12-15T06:41:32.608Z,28.80
2022-12-15T06:44:00.943Z,29.83
2022-12-15T06:46:29.860Z,30.63
2022-12-15T06:48:57.225Z,20.05
2022-12-15T06:51:28.102Z,31.98
2022-12-15T06:53:56.011Z,25.13
2022-12-15T06:56:36.113Z,24.67
2022-12-15T06:59:04.858Z,21.17
2022-12-15T07:01:32.543Z,26.00
2022-12-15T07:04:01.377Z,26.40
2022-12-15T07:06:34.110Z,32.65
2022-12-15T07:09:00.928Z,15.32
2022-12-15T07:11:27.770Z,23.48
2022-12-15T07:13:54.883Z,29.52
2022-12-15T07:16:23.364Z,24.77
2022-12-15T07:18:50.491Z,20.40
2022-12-15T07:21:17.944Z,27.98
2022-12-15T07:24:01.454Z,20.63
2022-12-15T07:26:28.795Z,20.83
2022-12-15T07:28:56.104Z,24.40
2022-12-15T07:31:23.746Z,32.95
2022-12-15T07:33:52.272Z,28.27
2022-12-15T07:36:19.516Z,25.88
2022-12-15T07:38:50.627Z,34.85
2022-12-15T07:41:19.699Z,20.38
2022-12-15T07:43:47.528Z,35.00
2022-12-15T07:46:14.551Z,20.67
2022-12-15T07:48:41.416Z,22.60
2022-12-15T07:51:15.255Z,15.43
2022-12-15T07:53:44.206Z,30.25
2022-12-15T07:56:11.083Z,33.25
2022-12-15T07:58:38.785Z,33.80
2022-12-15T08:01:08.873Z,22.33
2022-12-15T08:03:37.249Z,33.28
2022-12-15T08:06:11.310Z,36.15
2022-12-15T08:08:39.132Z,29.88
2022-12-15T08:11:11.264Z,30.60
2022-12-15T08:16:27.533Z,34.50
2022-12-15T08:18:54.568Z,25.92
2022-12-15T08:21:21.294Z,33.72
2022-12-15T08:23:48.121Z,33.67
2022-12-15T08:26:17.913Z,34.58
2022-12-15T08:28:45.780Z,34.63
2022-12-15T08:31:17.147Z,35.03
2022-12-15T08:33:45.132Z,33.03
2022-12-15T08:36:14.507Z,34.38
2022-12-15T08:38:43.608Z,33.10
2022-12-15T08:41:21.111Z,35.00
2022-12-15T08:43:49.690Z,33.92
2022-12-15T08:46:25.686Z,31.33
2022-12-15T08:48:53.098Z,34.85
2022-12-15T08:51:22.122Z,33.42
2022-12-15T08:53:49.456Z,27.75
2022-12-15T08:56:19.871Z,32.72
2022-12-15T08:58:49.285Z,33.92
2022-12-15T09:01:23.926Z,33.85
2022-12-15T09:03:55.765Z,32.95
2022-12-15T09:06:36.696Z,26.98
2022-12-15T09:09:10.057Z,28.35
2022-12-15T09:11:36.919Z,22.15
2022-12-15T09:14:04.043Z,14.98
2022-12-15T09:16:31.256Z,32.55
2022-12-15T09:18:59.829Z,26.33
2022-12-15T09:21:29.413Z,31.58
2022-12-15T09:24:01.320Z,18.50
2022-12-15T09:26:31.209Z,15.18
2022-12-15T09:28:58.161Z,29.42
2022-12-15T09:31:37.822Z,33.53
2022-12-15T09:34:04.604Z,19.77
2022-12-15T09:36:35.298Z,32.75
2022-12-15T09:39:02.915Z,19.30
2022-12-15T09:41:33.312Z,39.92
2022-12-15T09:44:19.927Z,41.40
2022-12-15T09:47:15.903Z,27.33
2022-12-15T09:49:53.302Z,32.85
2022-12-15T09:52:26.467Z,31.92
2022-12-15T09:54:53.812Z,30.40
2022-12-15T09:57:33.636Z,33.55
2022-12-15T10:00:15.995Z,24.83
2022-12-15T10:03:10.850Z,26.77
2022-12-15T10:09:13.532Z,35.75
2022-12-15T10:12:00.754Z,34.10
2022-12-15T10:14:49.895Z,36.58
2022-12-15T10:17:30.609Z,32.70
2022-12-15T10:20:18.892Z,30.73
2022-12-15T10:22:50.425Z,34.33
2022-12-15T10:25:30.331Z,32.90
2022-12-15T10:28:21.962Z,29.77
2022-12-15T10:31:02.298Z,31.17
2022-12-15T10:33:38.135Z,32.00
2022-12-15T10:36:15.498Z,31.70
2022-12-15T10:38:50.625Z,32.00
2022-12-15T10:41:23.870Z,29.58
2022-12-15T10:43:53.225Z,34.90
2022-12-15T10:46:28.029Z,35.92
2022-12-15T10:49:08.153Z,34.33
2022-12-15T10:51:48.402Z,36.88
2022-12-15T10:54:18.315Z,38.20
2022-12-15T10:56:53.162Z,32.58
2022-12-15T10:59:34.856Z,32.47
2022-12-15T11:02:24.096Z,32.97
2022-12-15T11:05:03.731Z,33.03
2022-12-15T11:07:46.514Z,34.00
2022-12-15T11:10:27.285Z,33.00
2022-12-15T11:13:18.988Z,32.20
2022-12-15T11:15:51.703Z,31.15
2022-12-15T11:18:49.817Z,33.55
2022-12-15T11:21:26.133Z,33.53
2022-12-15T11:24:29.585Z,32.30
2022-12-15T11:27:14.076Z,38.55
2022-12-15T11:30:00.056Z,25.15
2022-12-15T11:32:31.316Z,56.83
2022-12-15T11:34:58.436Z,41.67
2022-12-15T11:37:42.922Z,56.53
2022-12-15T11:40:42.737Z,120.53
2022-12-15T11:43:40.438Z,34.53
2022-12-15T11:46:26.502Z,28.33
2022-12-15T11:48:53.209Z,34.78
2022-12-15T11:52:10.066Z,33.03
2022-12-15T11:54:39.871Z,25.80
2022-12-15T11:57:48.019Z,27.15
2022-12-15T12:00:21.349Z,23.20
2022-12-15T12:03:17.091Z,30.83
2022-12-15T12:06:05.054Z,17.88
2022-12-15T12:09:01.907Z,17.67
2022-12-15T12:11:40.577Z,19.25
2022-12-15T12:14:13.298Z,17.08
2022-12-15T12:16:47.808Z,17.92
2022-12-15T12:19:39.843Z,16.95
2022-12-15T12:22:19.053Z,14.50
2022-12-15T12:24:53.160Z,16.52
2022-12-15T12:27:26.071Z,15.15
2022-12-15T12:30:02.573Z,16.70
2022-12-15T12:32:54.824Z,12.55
2022-12-15T12:35:38.188Z,14.88
2022-12-15T12:38:10.611Z,18.70
2022-12-15T12:40:49.846Z,12.48
2022-12-15T12:43:34.199Z,15.88
2022-12-15T12:46:30.080Z,18.60
2022-12-15T12:49:30.111Z,14.70
2022-12-15T12:51:59.696Z,15.75
2022-12-15T12:54:40.420Z,15.75
2022-12-15T12:57:13.401Z,17.13
2022-12-15T13:02:50.776Z,17.70
2022-12-15T13:05:35.456Z,14.50
2022-12-15T13:08:05.319Z,16.80
2022-12-15T13:10:40.752Z,20.10
2022-12-15T13:13:32.207Z,19.00
2022-12-15T13:16:10.592Z,19.00
2022-12-15T13:19:04.427Z,23.00
2022-12-15T13:21:45.719Z,21.73
2022-12-15T13:24:34.276Z,31.58
2022-12-15T13:27:19.947Z,19.20
2022-12-15T13:30:16.130Z,17.58
2022-12-15T13:32:51.797Z,14.10
2022-12-15T13:35:29.437Z,17.95
2022-12-15T13:38:02.995Z,17.35
2022-12-15T13:40:52.394Z,15.48
2022-12-15T13:43:29.111Z,15.27
2022-12-15T13:46:11.020Z,14.30
2022-12-15T13:48:46.161Z,15.32
2022-12-15T13:51:33.562Z,15.35
2022-12-15T13:54:08.102Z,16.75
2022-12-15T13:56:37.577Z,15.73
2022-12-15T13:59:14.082Z,14.55
2022-12-15T14:01:51.177Z,14.73
2022-12-15T14:04:19.344Z,15.20
2022-12-15T14:07:01.904Z,13.88
2022-12-15T14:09:36.834Z,15.45
2022-12-15T14:12:06.393Z,15.25
2022-12-15T14:14:37.366Z,17.45
2022-12-15T14:17:09.731Z,17.58
2022-12-15T14:19:50.946Z,15.60
2022-12-15T14:22:30.520Z,17.55
2022-12-15T14:25:32.193Z,17.48
2022-12-15T14:27:59.015Z,15.38
2022-12-15T14:30:29.336Z,16.15
2022-12-15T14:33:06.989Z,15.48
2022-12-15T14:35:40.074Z,17.23
2022-12-15T14:38:12.618Z,17.98
2022-12-15T14:40:40.519Z,16.20
2022-12-15T14:43:19.195Z,15.73
2022-12-15T14:45:55.134Z,16.92
2022-12-15T14:51:25.533Z,16.70
2022-12-15T14:53:54.103Z,15.75
2022-12-15T14:56:25.935Z,16.38
2022-12-15T14:59:21.023Z,16.77
2022-12-15T15:02:19.875Z,16.30
2022-12-15T15:03:04.234Z,26.70
2022-12-15T15:05:07.449Z,13.65
2022-12-15T15:07:37.946Z,15.45
2022-12-15T15:10:22.866Z,18.88
2022-12-15T15:12:49.943Z,21.45
2022-12-15T15:15:20.644Z,18.17
2022-12-15T15:18:05.792Z,18.27
2022-12-15T15:20:37.737Z,24.92
2022-12-15T15:23:07.522Z,16.15
2022-12-15T15:25:40.525Z,20.88
2022-12-15T15:28:19.485Z,23.00
2022-12-15T15:31:05.513Z,25.35
2022-12-15T15:33:33.041Z,28.35
2022-12-15T15:36:02.555Z,30.98
2022-12-15T15:38:41.342Z,27.02
2022-12-15T15:41:23.285Z,25.65
2022-12-15T15:43:50.042Z,23.98
2022-12-15T15:46:21.423Z,23.27
2022-12-15T15:48:54.037Z,27.20
2022-12-15T15:51:21.638Z,24.33
2022-12-15T15:53:48.463Z,25.77
2022-12-15T15:56:17.005Z,25.23
2022-12-15T15:58:44.041Z,22.50
2022-12-15T16:01:13.647Z,37.03
2022-12-15T16:03:41.676Z,26.83
2022-12-15T16:06:18.514Z,21.30
2022-12-15T16:08:49.588Z,26.05
2022-12-15T16:11:16.549Z,25.67
2022-12-15T16:13:44.379Z,26.88
2022-12-15T16:16:20.340Z,27.10
2022-12-15T16:18:47.745Z,25.23
2022-12-15T16:21:16.830Z,28.83
2022-12-15T16:23:46.478Z,27.70
2022-12-15T16:26:32.943Z,25.88
2022-12-15T16:29:00.128Z,26.23
2022-12-15T16:31:41.434Z,26.48
2022-12-15T16:34:08.876Z,27.95
2022-12-15T16:36:35.836Z,27.27
2022-12-15T16:39:04.150Z,24.25
2022-12-15T16:41:31.044Z,28.02
2022-12-15T16:43:58.585Z,27.48
2022-12-15T16:46:26.006Z,28.30
2022-12-15T16:48:53.568Z,28.83
2022-12-15T16:51:38.974Z,25.42
2022-12-15T16:54:06.604Z,28.35
2022-12-15T16:56:33.706Z,21.58
2022-12-15T16:59:31.536Z,24.23
2022-12-15T17:01:48.189Z,27.27
2022-12-15T17:04:16.546Z,26.52
2022-12-15T17:06:43.612Z,25.63
2022-12-15T17:09:21.140Z,27.08
2022-12-15T17:11:48.087Z,26.45
2022-12-15T17:14:15.767Z,22.67
2022-12-15T17:16:42.538Z,27.20
2022-12-15T17:19:09.312Z,25.20
2022-12-15T17:21:45.294Z,26.60
2022-12-15T17:24:17.420Z,27.92
2022-12-15T17:26:44.886Z,19.50
2022-12-15T17:29:21.271Z,37.45
2022-12-15T17:31:48.102Z,33.33
2022-12-15T17:34:35.218Z,29.65
2022-12-15T17:37:05.421Z,28.77
2022-12-15T17:39:34.837Z,31.27
2022-12-15T17:42:02.589Z,31.98
2022-12-15T17:44:36.654Z,30.73
2022-12-15T17:47:07.480Z,30.63
2022-12-15T17:49:37.306Z,30.30
2022-12-15T17:52:29.640Z,29.88
2022-12-15T17:54:56.970Z,27.80
2022-12-15T17:57:23.854Z,28.60
2022-12-15T17:59:50.625Z,31.05
2022-12-15T18:02:17.517Z,29.92
2022-12-15T18:04:44.724Z,28.98
2022-12-15T18:07:21.486Z,29.98
2022-12-15T18:09:51.311Z,29.08
2022-12-15T18:12:22.462Z,30.23
2022-12-15T18:14:49.518Z,30.50
2022-12-15T18:17:16.519Z,29.90
2022-12-15T18:19:43.358Z,31.90
2022-12-15T18:22:21.853Z,29.17
2022-12-15T18:24:49.949Z,31.65
2022-12-15T18:27:27.023Z,37.20
2022-12-15T18:29:54.324Z,34.85
2022-12-15T18:32:24.059Z,34.00
2022-12-15T18:34:51.318Z,37.88
2022-12-15T18:37:21.331Z,34.55
2022-12-15T18:39:48.398Z,34.90
2022-12-15T18:42:18.298Z,33.00
2022-12-15T18:44:49.177Z,32.55
2022-12-15T18:47:18.794Z,34.03
2022-12-15T18:49:45.903Z,31.13
2022-12-15T18:52:22.231Z,33.70
2022-12-15T18:54:52.038Z,34.15
2022-12-15T18:57:40.701Z,34.28
2022-12-15T19:00:27.615Z,34.03
2022-12-15T19:02:57.385Z,34.35
2022-12-15T19:05:32.567Z,30.80
2022-12-15T19:08:10.805Z,33.75
2022-12-15T19:10:52.713Z,34.78
2022-12-15T19:13:23.137Z,36.17
2022-12-15T19:15:50.299Z,34.03
2022-12-15T19:18:40.035Z,35.80
2022-12-15T19:21:41.029Z,36.53
2022-12-15T19:24:18.394Z,36.30
2022-12-15T19:26:45.151Z,38.25
2022-12-15T19:29:22.661Z,41.53
2022-12-15T19:31:49.741Z,39.47
2022-12-15T19:34:16.546Z,41.15
2022-12-15T19:36:43.412Z,41.45
2022-12-15T19:39:22.715Z,42.15
2022-12-15T19:41:49.648Z,39.28
2022-12-15T19:44:17.184Z,42.95
2022-12-15T19:46:44.903Z,41.83
2022-12-15T19:49:11.915Z,41.47
2022-12-15T19:51:39.477Z,44.08
2022-12-15T19:54:06.467Z,43.70
2022-12-15T19:56:33.322Z,41.63
2022-12-15T19:59:00.191Z,38.00
2022-12-15T20:01:27.172Z,37.10
2022-12-15T20:03:54.136Z,38.35
2022-12-15T20:06:26.779Z,40.05
2022-12-15T20:08:56.292Z,36.95
2022-12-15T20:11:32.072Z,33.00
2022-12-15T20:13:59.190Z,37.58
2022-12-15T20:16:26.029Z,34.38
2022-12-15T20:18:55.181Z,36.55
2022-12-15T20:21:27.937Z,36.70
2022-12-15T20:24:08.074Z,35.40
2022-12-15T20:26:37.406Z,36.50
2022-12-15T20:29:05.654Z,39.42
2022-12-15T20:31:32.535Z,37.30
2022-12-15T20:33:59.351Z,39.10
2022-12-15T20:36:29.867Z,37.03
2022-12-15T20:38:57.149Z,37.03
2022-12-15T20:41:27.047Z,37.30
2022-12-15T20:43:55.192Z,36.80
2022-12-15T20:46:26.523Z,36.67
2022-12-15T20:48:55.753Z,37.30
2022-12-15T20:51:26.189Z,39.33
2022-12-15T20:53:57.325Z,37.63
2022-12-15T20:56:24.715Z,37.80
2022-12-15T20:58:53.761Z,37.13
2022-12-15T21:01:33.143Z,38.20
2022-12-15T21:04:22.227Z,35.88
2022-12-15T21:06:54.800Z,34.63
2022-12-15T21:09:23.415Z,37.42
2022-12-15T21:11:51.773Z,38.30
2022-12-15T21:14:23.034Z,36.10
2022-12-15T21:16:50.349Z,39.38
2022-12-15T21:19:22.133Z,38.85
2022-12-15T21:21:55.562Z,28.58
2022-12-15T21:24:28.623Z,39.30
2022-12-15T21:26:56.051Z,31.60
2022-12-15T21:29:25.927Z,34.58
2022-12-15T21:31:52.771Z,34.47
2022-12-15T21:34:19.563Z,37.88
2022-12-15T21:36:51.848Z,39.35
2022-12-15T21:39:29.337Z,35.00
2022-12-15T21:41:59.836Z,37.42
2022-12-15T21:44:26.604Z,36.30
2022-12-15T21:46:53.385Z,37.85
2022-12-15T21:49:21.674Z,37.20
2022-12-15T21:51:55.133Z,38.13
2022-12-15T21:54:33.224Z,40.47
2022-12-15T21:57:02.639Z,38.60
2022-12-15T21:59:32.415Z,35.22
2022-12-15T22:02:22.186Z,38.00
2022-12-15T22:04:49.162Z,38.00
2022-12-15T22:07:16.210Z,38.78
2022-12-15T22:09:43.542Z,40.03
2022-12-15T22:12:20.697Z,38.75
2022-12-15T22:14:47.930Z,38.38
2022-12-15T22:17:19.801Z,40.05
2022-12-15T22:19:47.254Z,41.20
2022-12-15T22:22:14.351Z,37.90
2022-12-15T22:24:41.472Z,40.17
2022-12-15T22:27:20.805Z,36.00
2022-12-15T22:29:49.469Z,41.03
2022-12-15T22:32:17.466Z,38.80
2022-12-15T22:34:44.352Z,37.88
2022-12-15T22:37:11.125Z,40.13
2022-12-15T22:39:37.866Z,43.25
2022-12-15T22:42:05.751Z,38.78
2022-12-15T22:44:37.138Z,36.33
2022-12-15T22:47:04.797Z,37.67
2022-12-15T22:49:35.671Z,36.25
2022-12-15T22:52:02.575Z,38.38
2022-12-15T22:54:31.855Z,41.10
2022-12-15T22:57:05.320Z,38.47
2022-12-15T22:59:41.352Z,42.47
2022-12-15T23:02:09.333Z,38.33
2022-12-15T23:04:36.719Z,39.20
2022-12-15T23:07:07.560Z,39.38
2022-12-15T23:09:34.295Z,43.38
2022-12-15T23:12:01.416Z,42.28
2022-12-15T23:14:46.467Z,46.30
2022-12-15T23:17:14.247Z,43.42
2022-12-15T23:19:47.386Z,38.35
2022-12-15T23:22:14.497Z,42.17
2022-12-15T23:24:41.631Z,42.53
2022-12-15T23:27:11.856Z,43.42
2022-12-15T23:29:38.718Z,41.63
2022-12-15T23:32:05.996Z,43.88
2022-12-15T23:34:32.775Z,43.10
2022-12-15T23:36:59.631Z,45.38
2022-12-15T23:39:26.391Z,44.42
2022-12-15T23:41:53.116Z,41.70
2022-12-15T23:44:20.237Z,44.13
2022-12-15T23:46:47.242Z,42.50
2022-12-15T23:49:14.092Z,42.53
2022-12-15T23:51:40.842Z,42.95
2022-12-15T23:54:07.673Z,44.40
2022-12-15T23:56:35.032Z,43.50
2022-12-15T23:59:01.856Z,40.97
